Volcan De Teneguia — ECLA — position and weather

sailwx.info

Track history (hours):
 
Tides and Currents Weather Stations Pressure Air Temp Water Temp Dewpoint Dewpoint Depression Visibility Wind Speed Wind Dir Waves Ship Positions

Volcan De Teneguia

Last reported at 2016-Jun-27 02:33 UTC. Time now 2016-Jun-28 11:42 UTC.
Position N 36°12' W 006°42'.

Length 145 m; draft 5.2 m.

Type: Ship (hazmat cat A). MMSI: 225317000.

Date/timePositionNaut miles runAvg speedWind from/ knotsBaromVisibWave heightAir tempDewpointWater temp
2016-Jun-27 02:33N 36°12' W 006°42'1411.9
2016-Jun-27 01:24N 36°08' W 006°59'  
2016-Jun-24 13:33N 28°17' W 015°37'1414.3
2016-Jun-24 12:33N 28°10' W 015°23'2 2.2
2016-Jun-24 11:34N 28°09' W 015°25'0 0.0
2016-Jun-24 10:32N 28°09' W 015°25'0 0.0
2016-Jun-24 09:32N 28°09' W 015°25'0 0.0
2016-Jun-24 08:32N 28°09' W 015°25'0 0.0
2016-Jun-24 07:32N 28°09' W 015°25'14 4.4
2016-Jun-24 04:18N 28°20' W 015°15'911.4
2016-Jun-24 03:33N 28°18' W 015°25'8 7.2
2016-Jun-24 02:29N 28°20' W 015°33'127 6.7
2016-Jun-23 07:33N 30°06' W 014°12'3215.3
2016-Jun-23 05:27N 30°29' W 013°47'1415.4
2016-Jun-23 04:33N 30°38' W 013°35'1515.3
2016-Jun-23 03:33N 30°49' W 013°22'1615.1
2016-Jun-23 02:31N 31°00' W 013°09'1415.0
2016-Jun-23 01:34N 31°10' W 012°57'1515.3
2016-Jun-23 00:33N 31°21' W 012°44'1515.1
2016-Jun-22 23:33N 31°31' W 012°32'2114.9
2016-Jun-22 22:10N 31°46' W 012°14'4414.8
2016-Jun-22 19:13N 32°17' W 011°38'1014.9
2016-Jun-22 18:33N 32°23' W 011°29'3214.9
2016-Jun-22 16:23N 32°46' W 011°03'1815.2
2016-Jun-22 15:11N 32°59' W 010°47'16314.8
2016-Jun-22 04:10N 34°54' W 008°28'914.4
2016-Jun-22 03:31N 34°60' W 008°19'6114.2
2016-Jun-21 23:12N 35°43' W 007°25'913.8
2016-Jun-21 22:33N 35°49' W 007°17'44 0.9
2016-Jun-19 19:33N 35°16' W 007°53'1212.2
2016-Jun-19 18:33N 35°03' W 007°53'1313.0
2016-Jun-19 17:32N 34°52' W 008°01'2813.7
2016-Jun-19 15:31N 34°30' W 008°21'1413.5
2016-Jun-19 14:28N 34°19' W 008°32'1313.7
2016-Jun-19 13:33N 34°09' W 008°41'45512.9
2016-Jun-18 02:25N 29°04' W 015°17'1113.2
2016-Jun-18 01:33N 28°57' W 015°27'1313.5
2016-Jun-18 00:33N 28°49' W 015°39'1413.7
2016-Jun-17 23:33N 28°40' W 015°52'1413.8
2016-Jun-17 22:33N 28°32' W 016°04'9 9.0
2016-Jun-17 21:34N 28°29' W 016°14'0 0.0
2016-Jun-17 20:04N 28°29' W 016°14'0 0.0
2016-Jun-17 19:07N 28°29' W 016°14'0 0.0
2016-Jun-17 18:25N 28°29' W 016°14'0 0.1
2016-Jun-17 16:32N 28°29' W 016°14'1212.5
2016-Jun-17 15:33N 28°24' W 016°01'1514.8
2016-Jun-17 14:33N 28°19' W 015°45'1414.5
2016-Jun-17 13:33N 28°14' W 015°30'7 7.5
2016-Jun-17 12:33N 28°08' W 015°25'1 0.8
2016-Jun-17 11:31N 28°09' W 015°25'0 0.0
2016-Jun-17 10:31N 28°09' W 015°25'0 0.0
2016-Jun-17 09:31N 28°09' W 015°25'0 0.0
2016-Jun-17 08:22N 28°09' W 015°25'0 0.0
2016-Jun-17 07:22N 28°09' W 015°25'0 0.0
2016-Jun-17 06:25N 28°09' W 015°25'2 2.7
2016-Jun-17 05:33N 28°07' W 015°23'1111.4
2016-Jun-17 04:34N 28°18' W 015°20'1110.8
2016-Jun-17 03:33N 28°29' W 015°21'5 5.4
2016-Jun-17 02:33N 28°29' W 015°27'  
Track history (hours):
 
Tides and Currents Weather Stations Pressure Air Temp Water Temp Dewpoint Dewpoint Depression Visibility Wind Speed Wind Dir Waves Ship Positions

Volcan De Teneguia

Last reported at 2016-Jun-27 02:33 UTC. Time now 2016-Jun-28 11:42 UTC.
Position N 36°12' W 006°42'.

Length 145 m; draft 5.2 m.

Type: Ship (hazmat cat A). MMSI: 225317000.

Date/timePositionNaut miles runAvg speedWind from/ knotsBaromVisibWave heightAir tempDewpointWater temp
2016-Jun-27 02:33N 36°12' W 006°42'1411.9
2016-Jun-27 01:24N 36°08' W 006°59'  
2016-Jun-24 13:33N 28°17' W 015°37'1414.3
2016-Jun-24 12:33N 28°10' W 015°23'2 2.2
2016-Jun-24 11:34N 28°09' W 015°25'0 0.0
2016-Jun-24 10:32N 28°09' W 015°25'0 0.0
2016-Jun-24 09:32N 28°09' W 015°25'0 0.0
2016-Jun-24 08:32N 28°09' W 015°25'0 0.0
2016-Jun-24 07:32N 28°09' W 015°25'14 4.4
2016-Jun-24 04:18N 28°20' W 015°15'911.4
2016-Jun-24 03:33N 28°18' W 015°25'8 7.2
2016-Jun-24 02:29N 28°20' W 015°33'127 6.7
2016-Jun-23 07:33N 30°06' W 014°12'3215.3
2016-Jun-23 05:27N 30°29' W 013°47'1415.4
2016-Jun-23 04:33N 30°38' W 013°35'1515.3
2016-Jun-23 03:33N 30°49' W 013°22'1615.1
2016-Jun-23 02:31N 31°00' W 013°09'1415.0
2016-Jun-23 01:34N 31°10' W 012°57'1515.3
2016-Jun-23 00:33N 31°21' W 012°44'1515.1
2016-Jun-22 23:33N 31°31' W 012°32'2114.9
2016-Jun-22 22:10N 31°46' W 012°14'4414.8
2016-Jun-22 19:13N 32°17' W 011°38'1014.9
2016-Jun-22 18:33N 32°23' W 011°29'3214.9
2016-Jun-22 16:23N 32°46' W 011°03'1815.2
2016-Jun-22 15:11N 32°59' W 010°47'16314.8
2016-Jun-22 04:10N 34°54' W 008°28'914.4
2016-Jun-22 03:31N 34°60' W 008°19'6114.2
2016-Jun-21 23:12N 35°43' W 007°25'913.8
2016-Jun-21 22:33N 35°49' W 007°17'44 0.9
2016-Jun-19 19:33N 35°16' W 007°53'1212.2
2016-Jun-19 18:33N 35°03' W 007°53'1313.0
2016-Jun-19 17:32N 34°52' W 008°01'2813.7
2016-Jun-19 15:31N 34°30' W 008°21'1413.5
2016-Jun-19 14:28N 34°19' W 008°32'1313.7
2016-Jun-19 13:33N 34°09' W 008°41'45512.9
2016-Jun-18 02:25N 29°04' W 015°17'1113.2
2016-Jun-18 01:33N 28°57' W 015°27'1313.5
2016-Jun-18 00:33N 28°49' W 015°39'1413.7
2016-Jun-17 23:33N 28°40' W 015°52'1413.8
2016-Jun-17 22:33N 28°32' W 016°04'9 9.0
2016-Jun-17 21:34N 28°29' W 016°14'0 0.0
2016-Jun-17 20:04N 28°29' W 016°14'0 0.0
2016-Jun-17 19:07N 28°29' W 016°14'0 0.0
2016-Jun-17 18:25N 28°29' W 016°14'0 0.1
2016-Jun-17 16:32N 28°29' W 016°14'1212.5
2016-Jun-17 15:33N 28°24' W 016°01'1514.8
2016-Jun-17 14:33N 28°19' W 015°45'1414.5
2016-Jun-17 13:33N 28°14' W 015°30'7 7.5
2016-Jun-17 12:33N 28°08' W 015°25'1 0.8
2016-Jun-17 11:31N 28°09' W 015°25'0 0.0
2016-Jun-17 10:31N 28°09' W 015°25'0 0.0
2016-Jun-17 09:31N 28°09' W 015°25'0 0.0
2016-Jun-17 08:22N 28°09' W 015°25'0 0.0
2016-Jun-17 07:22N 28°09' W 015°25'0 0.0
2016-Jun-17 06:25N 28°09' W 015°25'2 2.7
2016-Jun-17 05:33N 28°07' W 015°23'1111.4
2016-Jun-17 04:34N 28°18' W 015°20'1110.8
2016-Jun-17 03:33N 28°29' W 015°21'5 5.4
2016-Jun-17 02:33N 28°29' W 015°27'  

Dump ship's entire track history